sensor_id;sensor_type;location;lat;lon;timestamp;temperature;humidity
77247;SHT35;66279;42.820;23.374;2023-07-20T06:52:34;26.93;55.54
77247;SHT35;66279;42.820;23.374;2023-07-20T06:54:59;27.13;54.53
77247;SHT35;66279;42.820;23.374;2023-07-20T06:57:25;27.20;54.44
77247;SHT35;66279;42.820;23.374;2023-07-20T06:59:51;27.29;55.82
77247;SHT35;66279;42.820;23.374;2023-07-20T07:02:16;27.33;54.43
77247;SHT35;66279;42.820;23.374;2023-07-20T07:04:42;27.48;55.98
77247;SHT35;66279;42.820;23.374;2023-07-20T07:07:08;27.45;55.90
77247;SHT35;66279;42.820;23.374;2023-07-20T07:09:34;27.64;53.99
77247;SHT35;66279;42.820;23.374;2023-07-20T07:12:00;27.72;53.38
77247;SHT35;66279;42.820;23.374;2023-07-20T07:14:25;27.94;53.86
77247;SHT35;66279;42.820;23.374;2023-07-20T07:16:51;28.12;53.60
77247;SHT35;66279;42.820;23.374;2023-07-20T07:19:16;28.29;52.63
77247;SHT35;66279;42.820;23.374;2023-07-20T07:21:42;28.29;52.67
77247;SHT35;66279;42.820;23.374;2023-07-20T07:24:08;28.22;51.90
77247;SHT35;66279;42.820;23.374;2023-07-20T07:26:36;28.23;52.42
77247;SHT35;66279;42.820;23.374;2023-07-20T07:29:02;28.52;51.48
77247;SHT35;66279;42.820;23.374;2023-07-20T07:31:34;28.65;52.15
77247;SHT35;66279;42.820;23.374;2023-07-20T07:34:01;28.77;51.20
77247;SHT35;66279;42.820;23.374;2023-07-20T07:36:26;29.08;51.32
77247;SHT35;66279;42.820;23.374;2023-07-20T07:38:52;29.42;48.26
77247;SHT35;66279;42.820;23.374;2023-07-20T07:41:17;29.59;49.60
77247;SHT35;66279;42.820;23.374;2023-07-20T07:43:43;29.69;48.21
77247;SHT35;66279;42.820;23.374;2023-07-20T07:46:09;29.69;47.67
77247;SHT35;66279;42.820;23.374;2023-07-20T07:48:34;29.86;47.24
77247;SHT35;66279;42.820;23.374;2023-07-20T07:51:00;30.09;46.70
77247;SHT35;66279;42.820;23.374;2023-07-20T07:53:25;30.10;45.32
77247;SHT35;66279;42.820;23.374;2023-07-20T07:55:51;30.13;45.21
77247;SHT35;66279;42.820;23.374;2023-07-20T07:58:17;30.37;45.76
77247;SHT35;66279;42.820;23.374;2023-07-20T08:00:43;30.61;45.96
77247;SHT35;66279;42.820;23.374;2023-07-20T08:03:10;30.75;44.22
77247;SHT35;66279;42.820;23.374;2023-07-20T08:05:36;31.00;44.82
77247;SHT35;66279;42.820;23.374;2023-07-20T08:08:04;31.10;43.89
77247;SHT35;66279;42.820;23.374;2023-07-20T08:10:30;31.20;43.76
77247;SHT35;66279;42.820;23.374;2023-07-20T08:12:56;31.43;44.44
77247;SHT35;66279;42.820;23.374;2023-07-20T08:15:22;31.50;44.36
77247;SHT35;66279;42.820;23.374;2023-07-20T08:17:48;31.38;43.67
77247;SHT35;66279;42.820;23.374;2023-07-20T08:20:14;31.36;43.53
77247;SHT35;66279;42.820;23.374;2023-07-20T08:22:41;31.23;44.40
77247;SHT35;66279;42.820;23.374;2023-07-20T08:25:07;31.08;45.84
77247;SHT35;66279;42.820;23.374;2023-07-20T08:27:34;31.13;45.28
77247;SHT35;66279;42.820;23.374;2023-07-20T08:29:59;31.29;45.88
77247;SHT35;66279;42.820;23.374;2023-07-20T08:32:25;31.71;45.55
77247;SHT35;66279;42.820;23.374;2023-07-20T08:34:51;32.02;42.73
77247;SHT35;66279;42.820;23.374;2023-07-20T08:37:16;32.04;44.19
77247;SHT35;66279;42.820;23.374;2023-07-20T08:39:42;32.31;43.10
77247;SHT35;66279;42.820;23.374;2023-07-20T08:42:09;32.35;40.05
77247;SHT35;66279;42.820;23.374;2023-07-20T08:44:37;32.32;38.63
77247;SHT35;66279;42.820;23.374;2023-07-20T08:47:04;32.66;39.37
77247;SHT35;66279;42.820;23.374;2023-07-20T08:49:31;32.39;37.54
77247;SHT35;66279;42.820;23.374;2023-07-20T08:51:58;32.63;35.81
77247;SHT35;66279;42.820;23.374;2023-07-20T08:54:32;32.79;37.83
77247;SHT35;66279;42.820;23.374;2023-07-20T08:57:05;32.93;35.37
77247;SHT35;66279;42.820;23.374;2023-07-20T08:59:31;33.31;35.31
77247;SHT35;66279;42.820;23.374;2023-07-20T09:01:58;33.72;34.20
77247;SHT35;66279;42.820;23.374;2023-07-20T09:04:24;34.02;35.05
77247;SHT35;66279;42.820;23.374;2023-07-20T09:06:50;33.89;33.25
77247;SHT35;66279;42.820;23.374;2023-07-20T09:09:16;34.21;35.42
77247;SHT35;66279;42.820;23.374;2023-07-20T09:11:42;34.83;32.79
77247;SHT35;66279;42.820;23.374;2023-07-20T09:14:09;34.87;33.71
77247;SHT35;66279;42.820;23.374;2023-07-20T09:16:48;35.05;31.71
77247;SHT35;66279;42.820;23.374;2023-07-20T09:19:18;35.04;32.18
77247;SHT35;66279;42.820;23.374;2023-07-20T09:21:45;35.21;32.19
77247;SHT35;66279;42.820;23.374;2023-07-20T09:24:12;35.24;33.23
77247;SHT35;66279;42.820;23.374;2023-07-20T09:26:41;35.24;33.82
77247;SHT35;66279;42.820;23.374;2023-07-20T09:29:07;35.38;32.08
77247;SHT35;66279;42.820;23.374;2023-07-20T09:31:34;35.55;31.86
77247;SHT35;66279;42.820;23.374;2023-07-20T09:34:00;35.63;31.33
77247;SHT35;66279;42.820;23.374;2023-07-20T09:36:28;35.57;32.31
77247;SHT35;66279;42.820;23.374;2023-07-20T09:38:54;35.32;32.56
77247;SHT35;66279;42.820;23.374;2023-07-20T09:41:21;35.02;33.18
77247;SHT35;66279;42.820;23.374;2023-07-20T09:43:47;35.14;33.27
77247;SHT35;66279;42.820;23.374;2023-07-20T09:46:12;35.07;31.72
77247;SHT35;66279;42.820;23.374;2023-07-20T09:48:39;34.84;32.35
77247;SHT35;66279;42.820;23.374;2023-07-20T09:51:05;34.77;32.76
77247;SHT35;66279;42.820;23.374;2023-07-20T09:53:32;35.02;32.46
77247;SHT35;66279;42.820;23.374;2023-07-20T09:55:59;34.72;31.52
77247;SHT35;66279;42.820;23.374;2023-07-20T09:58:28;34.91;32.76
77247;SHT35;66279;42.820;23.374;2023-07-20T10:00:57;34.61;32.38
77247;SHT35;66279;42.820;23.374;2023-07-20T10:03:29;34.49;33.59
77247;SHT35;66279;42.820;23.374;2023-07-20T10:06:02;34.68;33.61
77247;SHT35;66279;42.820;23.374;2023-07-20T10:08:29;34.66;31.84
77247;SHT35;66279;42.820;23.374;2023-07-20T10:10:57;34.57;31.39
77247;SHT35;66279;42.820;23.374;2023-07-20T10:13:29;34.64;31.01
77247;SHT35;66279;42.820;23.374;2023-07-20T10:16:05;34.61;32.00
77247;SHT35;66279;42.820;23.374;2023-07-20T10:18:59;34.58;30.14
77247;SHT35;66279;42.820;23.374;2023-07-20T10:21:29;34.41;30.74
77247;SHT35;66279;42.820;23.374;2023-07-20T10:23:55;33.99;31.66
77247;SHT35;66279;42.820;23.374;2023-07-20T10:26:21;33.92;31.71
77247;SHT35;66279;42.820;23.374;2023-07-20T10:28:47;33.50;32.80
77247;SHT35;66279;42.820;23.374;2023-07-20T10:31:13;33.72;34.69
77247;SHT35;66279;42.820;23.374;2023-07-20T10:33:39;33.88;34.21
77247;SHT35;66279;42.820;23.374;2023-07-20T10:36:05;34.13;33.69
77247;SHT35;66279;42.820;23.374;2023-07-20T10:41:19;34.08;33.68
77247;SHT35;66279;42.820;23.374;2023-07-20T10:43:46;33.69;33.70
77247;SHT35;66279;42.820;23.374;2023-07-20T10:46:12;33.21;33.97
77247;SHT35;66279;42.820;23.374;2023-07-20T10:49:00;32.76;34.80
77247;SHT35;66279;42.820;23.374;2023-07-20T10:51:28;32.87;36.15
77247;SHT35;66279;42.820;23.374;2023-07-20T10:53:55;33.13;35.28
77247;SHT35;66279;42.820;23.374;2023-07-20T10:56:23;32.99;34.84
77247;SHT35;66279;42.820;23.374;2023-07-20T10:58:56;33.14;35.16
77247;SHT35;66279;42.820;23.374;2023-07-20T11:01:27;33.45;34.90
77247;SHT35;66279;42.820;23.374;2023-07-20T11:03:57;33.85;33.83
77247;SHT35;66279;42.820;23.374;2023-07-20T11:09:23;34.54;34.24
77247;SHT35;66279;42.820;23.374;2023-07-20T11:11:47;34.74;33.43
77247;SHT35;66279;42.820;23.374;2023-07-20T11:14:23;34.74;33.01
77247;SHT35;66279;42.820;23.374;2023-07-20T11:16:49;34.43;33.14
77247;SHT35;66279;42.820;23.374;2023-07-20T11:19:25;34.46;34.03
77247;SHT35;66279;42.820;23.374;2023-07-20T11:21:52;34.51;33.53
77247;SHT35;66279;42.820;23.374;2023-07-20T11:24:18;34.46;34.59
77247;SHT35;66279;42.820;23.374;2023-07-20T11:29:11;34.88;32.36
77247;SHT35;66279;42.820;23.374;2023-07-20T11:31:38;34.70;33.03
77247;SHT35;66279;42.820;23.374;2023-07-20T11:34:03;34.76;33.34
77247;SHT35;66279;42.820;23.374;2023-07-20T11:36:29;35.04;34.30
77247;SHT35;66279;42.820;23.374;2023-07-20T11:38:55;35.38;32.72
77247;SHT35;66279;42.820;23.374;2023-07-20T11:41:20;35.29;32.43
77247;SHT35;66279;42.820;23.374;2023-07-20T11:43:47;35.34;32.33
77247;SHT35;66279;42.820;23.374;2023-07-20T11:46:12;35.83;32.14
77247;SHT35;66279;42.820;23.374;2023-07-20T11:48:38;35.90;33.03
77247;SHT35;66279;42.820;23.374;2023-07-20T11:51:05;36.16;30.09
77247;SHT35;66279;42.820;23.374;2023-07-20T11:53:31;36.11;30.20
77247;SHT35;66279;42.820;23.374;2023-07-20T11:55:59;36.54;30.91
77247;SHT35;66279;42.820;23.374;2023-07-20T11:58:25;36.65;28.65
77247;SHT35;66279;42.820;23.374;2023-07-20T12:00:55;36.60;29.81
77247;SHT35;66279;42.820;23.374;2023-07-20T12:03:21;36.67;28.77
77247;SHT35;66279;42.820;23.374;2023-07-20T12:05:46;37.15;30.39
77247;SHT35;66279;42.820;23.374;2023-07-20T12:08:12;37.30;27.98
77247;SHT35;66279;42.820;23.374;2023-07-20T12:10:39;37.54;27.87
77247;SHT35;66279;42.820;23.374;2023-07-20T12:13:10;37.29;28.35
77247;SHT35;66279;42.820;23.374;2023-07-20T12:15:39;36.82;26.77
77247;SHT35;66279;42.820;23.374;2023-07-20T12:18:04;36.51;28.06
77247;SHT35;66279;42.820;23.374;2023-07-20T12:20:35;36.58;26.70
77247;SHT35;66279;42.820;23.374;2023-07-20T12:23:05;36.44;27.51
77247;SHT35;66279;42.820;23.374;2023-07-20T12:25:46;36.43;29.54
77247;SHT35;66279;42.820;23.374;2023-07-20T12:28:16;36.70;28.20
77247;SHT35;66279;42.820;23.374;2023-07-20T12:30:43;36.65;29.37
77247;SHT35;66279;42.820;23.374;2023-07-20T12:33:09;36.99;28.93
77247;SHT35;66279;42.820;23.374;2023-07-20T12:35:35;37.51;28.01
77247;SHT35;66279;42.820;23.374;2023-07-20T12:38:01;37.70;28.88
77247;SHT35;66279;42.820;23.374;2023-07-20T12:40:26;37.46;27.64
77247;SHT35;66279;42.820;23.374;2023-07-20T12:42:52;37.54;28.47
77247;SHT35;66279;42.820;23.374;2023-07-20T12:45:17;37.66;28.24
77247;SHT35;66279;42.820;23.374;2023-07-20T12:47:43;37.78;28.28
77247;SHT35;66279;42.820;23.374;2023-07-20T12:50:10;37.85;27.13
77247;SHT35;66279;42.820;23.374;2023-07-20T12:52:36;37.44;27.92
77247;SHT35;66279;42.820;23.374;2023-07-20T12:55:04;37.27;29.12
77247;SHT35;66279;42.820;23.374;2023-07-20T12:57:30;37.13;27.65
77247;SHT35;66279;42.820;23.374;2023-07-20T12:59:55;37.08;28.78
77247;SHT35;66279;42.820;23.374;2023-07-20T13:02:21;36.51;28.49
77247;SHT35;66279;42.820;23.374;2023-07-20T13:04:46;36.49;29.31
77247;SHT35;66279;42.820;23.374;2023-07-20T13:07:12;36.67;28.38
77247;SHT35;66279;42.820;23.374;2023-07-20T13:09:38;36.43;29.60
77247;SHT35;66279;42.820;23.374;2023-07-20T13:12:04;36.65;31.05
77247;SHT35;66279;42.820;23.374;2023-07-20T13:14:29;36.92;29.34
77247;SHT35;66279;42.820;23.374;2023-07-20T13:16:55;36.30;28.92
77247;SHT35;66279;42.820;23.374;2023-07-20T13:19:21;36.11;30.14
77247;SHT35;66279;42.820;23.374;2023-07-20T13:21:47;35.89;31.37
77247;SHT35;66279;42.820;23.374;2023-07-20T13:24:13;36.25;30.89
77247;SHT35;66279;42.820;23.374;2023-07-20T13:26:38;36.54;28.24
77247;SHT35;66279;42.820;23.374;2023-07-20T13:29:04;35.97;28.23
77247;SHT35;66279;42.820;23.374;2023-07-20T13:31:29;36.00;29.23
77247;SHT35;66279;42.820;23.374;2023-07-20T13:33:55;36.17;28.77
77247;SHT35;66279;42.820;23.374;2023-07-20T13:36:22;36.47;28.92
77247;SHT35;66279;42.820;23.374;2023-07-20T13:38:48;36.28;30.35
77247;SHT35;66279;42.820;23.374;2023-07-20T13:41:14;36.47;30.74
77247;SHT35;66279;42.820;23.374;2023-07-20T13:43:42;36.55;30.74
77247;SHT35;66279;42.820;23.374;2023-07-20T13:46:07;36.35;30.26
77247;SHT35;66279;42.820;23.374;2023-07-20T13:48:33;36.28;29.08
77247;SHT35;66279;42.820;23.374;2023-07-20T13:50:59;36.38;29.53
77247;SHT35;66279;42.820;23.374;2023-07-20T13:53:24;36.31;29.90
77247;SHT35;66279;42.820;23.374;2023-07-20T13:55:50;36.28;30.21
77247;SHT35;66279;42.820;23.374;2023-07-20T13:58:16;36.25;31.06
77247;SHT35;66279;42.820;23.374;2023-07-20T14:00:41;36.20;29.96
77247;SHT35;66279;42.820;23.374;2023-07-20T14:03:07;35.89;29.10
77247;SHT35;66279;42.820;23.374;2023-07-20T14:05:33;35.75;29.66
77247;SHT35;66279;42.820;23.374;2023-07-20T14:07:59;35.14;30.50
77247;SHT35;66279;42.820;23.374;2023-07-20T14:10:24;35.11;31.14
77247;SHT35;66279;42.820;23.374;2023-07-20T14:12:50;35.07;31.39
77247;SHT35;66279;42.820;23.374;2023-07-20T14:15:16;35.04;31.72
77247;SHT35;66279;42.820;23.374;2023-07-20T14:17:43;34.84;31.82
77247;SHT35;66279;42.820;23.374;2023-07-20T14:20:09;34.71;31.46
77247;SHT35;66279;42.820;23.374;2023-07-20T14:22:34;34.83;31.00
77247;SHT35;66279;42.820;23.374;2023-07-20T14:25:00;34.78;32.89
77247;SHT35;66279;42.820;23.374;2023-07-20T14:27:25;34.99;33.05
77247;SHT35;66279;42.820;23.374;2023-07-20T14:29:51;35.31;32.74
77247;SHT35;66279;42.820;23.374;2023-07-20T14:32:16;35.26;31.40
77247;SHT35;66279;42.820;23.374;2023-07-20T14:34:42;35.11;31.93
77247;SHT35;66279;42.820;23.374;2023-07-20T14:37:08;35.32;30.79
77247;SHT35;66279;42.820;23.374;2023-07-20T14:39:34;35.36;31.73
77247;SHT35;66279;42.820;23.374;2023-07-20T14:41:59;35.41;30.41
77247;SHT35;66279;42.820;23.374;2023-07-20T14:44:25;34.92;31.15
77247;SHT35;66279;42.820;23.374;2023-07-20T14:46:50;34.88;31.12
77247;SHT35;66279;42.820;23.374;2023-07-20T14:49:16;34.61;32.50
77247;SHT35;66279;42.820;23.374;2023-07-20T14:51:43;34.64;32.03
77247;SHT35;66279;42.820;23.374;2023-07-20T14:54:12;34.78;32.45
77247;SHT35;66279;42.820;23.374;2023-07-20T14:56:38;34.40;32.44
77247;SHT35;66279;42.820;23.374;2023-07-20T14:59:04;34.51;31.91
77247;SHT35;66279;42.820;23.374;2023-07-20T15:01:31;34.67;32.55
77247;SHT35;66279;42.820;23.374;2023-07-20T15:03:57;34.67;32.90
77247;SHT35;66279;42.820;23.374;2023-07-20T15:06:23;34.46;31.45
77247;SHT35;66279;42.820;23.374;2023-07-20T15:08:48;34.41;32.36
77247;SHT35;66279;42.820;23.374;2023-07-20T15:11:14;34.26;32.55
77247;SHT35;66279;42.820;23.374;2023-07-20T15:13:39;34.12;32.86
77247;SHT35;66279;42.820;23.374;2023-07-20T15:16:08;34.23;32.69
77247;SHT35;66279;42.820;23.374;2023-07-20T15:18:36;34.10;32.30
77247;SHT35;66279;42.820;23.374;2023-07-20T15:21:01;34.30;32.77
77247;SHT35;66279;42.820;23.374;2023-07-20T15:23:27;34.29;32.17
77247;SHT35;66279;42.820;23.374;2023-07-20T15:25:53;34.08;32.14
77247;SHT35;66279;42.820;23.374;2023-07-20T15:28:18;34.20;32.63
77247;SHT35;66279;42.820;23.374;2023-07-20T15:30:44;33.96;32.68
77247;SHT35;66279;42.820;23.374;2023-07-20T15:33:09;34.15;32.71
77247;SHT35;66279;42.820;23.374;2023-07-20T15:35:35;34.13;32.48
77247;SHT35;66279;42.820;23.374;2023-07-20T15:38:01;33.93;32.21
77247;SHT35;66279;42.820;23.374;2023-07-20T15:40:27;33.72;32.47
77247;SHT35;66279;42.820;23.374;2023-07-20T15:42:52;33.76;32.79
77247;SHT35;66279;42.820;23.374;2023-07-20T15:45:18;33.91;32.45
77247;SHT35;66279;42.820;23.374;2023-07-20T15:47:43;33.86;32.81
77247;SHT35;66279;42.820;23.374;2023-07-20T15:50:09;33.89;32.81
77247;SHT35;66279;42.820;23.374;2023-07-20T15:52:34;33.57;32.48
77247;SHT35;66279;42.820;23.374;2023-07-20T15:55:00;33.31;32.73
77247;SHT35;66279;42.820;23.374;2023-07-20T15:57:26;33.15;32.83
77247;SHT35;66279;42.820;23.374;2023-07-20T15:59:51;33.11;33.10
77247;SHT35;66279;42.820;23.374;2023-07-20T16:02:17;32.93;32.89
77247;SHT35;66279;42.820;23.374;2023-07-20T16:04:42;32.82;33.30
77247;SHT35;66279;42.820;23.374;2023-07-20T16:07:10;32.86;33.56
77247;SHT35;66279;42.820;23.374;2023-07-20T16:09:36;32.76;34.25
77247;SHT35;66279;42.820;23.374;2023-07-20T16:12:03;32.64;33.87
77247;SHT35;66279;42.820;23.374;2023-07-20T16:14:29;32.69;34.19
77247;SHT35;66279;42.820;23.374;2023-07-20T16:16:55;32.62;33.86
77247;SHT35;66279;42.820;23.374;2023-07-20T16:19:20;32.55;33.56
77247;SHT35;66279;42.820;23.374;2023-07-20T16:21:46;32.55;33.83
77247;SHT35;66279;42.820;23.374;2023-07-20T16:24:11;32.39;34.29
77247;SHT35;66279;42.820;23.374;2023-07-20T16:26:37;31.98;34.40
77247;SHT35;66279;42.820;23.374;2023-07-20T16:29:08;31.98;34.89
77247;SHT35;66279;42.820;23.374;2023-07-20T16:31:33;31.68;34.75
77247;SHT35;66279;42.820;23.374;2023-07-20T16:33:59;31.53;34.48
77247;SHT35;66279;42.820;23.374;2023-07-20T16:36:24;31.48;34.67
77247;SHT35;66279;42.820;23.374;2023-07-20T16:38:50;31.51;34.58
77247;SHT35;66279;42.820;23.374;2023-07-20T16:41:16;31.46;34.80
77247;SHT35;66279;42.820;23.374;2023-07-20T16:43:41;31.50;35.15
77247;SHT35;66279;42.820;23.374;2023-07-20T16:46:10;31.44;34.59
77247;SHT35;66279;42.820;23.374;2023-07-20T16:48:39;31.34;33.83
77247;SHT35;66279;42.820;23.374;2023-07-20T16:51:08;31.27;34.74
77247;SHT35;66279;42.820;23.374;2023-07-20T16:53:34;31.34;34.85
77247;SHT35;66279;42.820;23.374;2023-07-20T16:55:59;31.40;34.87
77247;SHT35;66279;42.820;23.374;2023-07-20T16:58:26;31.37;36.43
77247;SHT35;66279;42.820;23.374;2023-07-20T17:00:59;31.47;37.12
77247;SHT35;66279;42.820;23.374;2023-07-20T17:03:26;31.31;38.59
77247;SHT35;66279;42.820;23.374;2023-07-20T17:05:54;31.00;40.27
77247;SHT35;66279;42.820;23.374;2023-07-20T17:08:20;30.80;40.89
77247;SHT35;66279;42.820;23.374;2023-07-20T17:10:45;30.74;40.42
77247;SHT35;66279;42.820;23.374;2023-07-20T17:13:11;30.76;41.31
77247;SHT35;66279;42.820;23.374;2023-07-20T17:15:39;30.57;42.27
77247;SHT35;66279;42.820;23.374;2023-07-20T17:18:05;30.18;43.08
77247;SHT35;66279;42.820;23.374;2023-07-20T17:20:31;30.11;43.57
77247;SHT35;66279;42.820;23.374;2023-07-20T17:22:59;29.96;43.65
77247;SHT35;66279;42.820;23.374;2023-07-20T17:25:25;29.80;44.63
77247;SHT35;66279;42.820;23.374;2023-07-20T17:27:50;29.41;45.49
77247;SHT35;66279;42.820;23.374;2023-07-20T17:30:16;29.28;45.76
77247;SHT35;66279;42.820;23.374;2023-07-20T17:32:42;29.14;45.35
77247;SHT35;66279;42.820;23.374;2023-07-20T17:35:08;29.04;46.76
77247;SHT35;66279;42.820;23.374;2023-07-20T17:37:39;29.04;46.34
77247;SHT35;66279;42.820;23.374;2023-07-20T17:40:09;28.78;47.18
77247;SHT35;66279;42.820;23.374;2023-07-20T17:42:40;28.56;47.18
77247;SHT35;66279;42.820;23.374;2023-07-20T17:45:06;28.42;47.52
77247;SHT35;66279;42.820;23.374;2023-07-20T17:47:32;28.29;47.35
77247;SHT35;66279;42.820;23.374;2023-07-20T17:49:58;28.25;47.53
77247;SHT35;66279;42.820;23.374;2023-07-20T17:52:24;28.13;47.66
77247;SHT35;66279;42.820;23.374;2023-07-20T17:54:49;28.08;47.35
77247;SHT35;66279;42.820;23.374;2023-07-20T17:57:15;27.99;47.87
77247;SHT35;66279;42.820;23.374;2023-07-20T17:59:41;28.01;47.96
77247;SHT35;66279;42.820;23.374;2023-07-20T18:02:07;27.98;47.38
77247;SHT35;66279;42.820;23.374;2023-07-20T18:04:34;27.95;47.54
77247;SHT35;66279;42.820;23.374;2023-07-20T18:06:59;27.86;48.68
77247;SHT35;66279;42.820;23.374;2023-07-20T18:09:25;27.84;48.37
77247;SHT35;66279;42.820;23.374;2023-07-20T18:11:51;27.81;48.98
77247;SHT35;66279;42.820;23.374;2023-07-20T18:14:17;27.59;48.85
77247;SHT35;66279;42.820;23.374;2023-07-20T18:16:43;27.44;49.41
77247;SHT35;66279;42.820;23.374;2023-07-20T18:19:08;27.36;48.53
77247;SHT35;66279;42.820;23.374;2023-07-20T18:21:34;27.22;48.19
77247;SHT35;66279;42.820;23.374;2023-07-20T18:24:00;27.07;49.59
77247;SHT35;66279;42.820;23.374;2023-07-20T18:26:25;26.99;48.75
77247;SHT35;66279;42.820;23.374;2023-07-20T18:28:51;26.92;48.02
77247;SHT35;66279;42.820;23.374;2023-07-20T18:31:17;26.89;48.48
77247;SHT35;66279;42.820;23.374;2023-07-20T18:33:43;26.80;48.76
77247;SHT35;66279;42.820;23.374;2023-07-20T18:36:08;26.72;49.42
77247;SHT35;66279;42.820;23.374;2023-07-20T18:38:34;26.59;49.90
77247;SHT35;66279;42.820;23.374;2023-07-20T18:41:00;26.49;49.52
77247;SHT35;66279;42.820;23.374;2023-07-20T18:43:26;26.39;51.77
77247;SHT35;66279;42.820;23.374;2023-07-20T18:45:53;26.28;51.23
77247;SHT35;66279;42.820;23.374;2023-07-20T18:48:19;26.13;52.27
77247;SHT35;66279;42.820;23.374;2023-07-20T18:50:45;26.04;51.48
77247;SHT35;66279;42.820;23.374;2023-07-20T18:53:10;25.84;53.37
77247;SHT35;66279;42.820;23.374;2023-07-20T18:55:36;25.66;53.34
77247;SHT35;66279;42.820;23.374;2023-07-20T18:58:02;25.62;54.66
77247;SHT35;66279;42.820;23.374;2023-07-20T19:00:28;25.59;54.97
77247;SHT35;66279;42.820;23.374;2023-07-20T19:02:54;25.57;55.29
77247;SHT35;66279;42.820;23.374;2023-07-20T19:05:19;25.47;55.34
77247;SHT35;66279;42.820;23.374;2023-07-20T19:07:45;25.42;54.63
77247;SHT35;66279;42.820;23.374;2023-07-20T19:10:11;25.16;55.46
77247;SHT35;66279;42.820;23.374;2023-07-20T19:12:38;24.99;56.93
77247;SHT35;66279;42.820;23.374;2023-07-20T19:15:04;24.74;58.50
77247;SHT35;66279;42.820;23.374;2023-07-20T19:17:30;24.60;57.09
77247;SHT35;66279;42.820;23.374;2023-07-20T19:19:56;24.31;58.72
77247;SHT35;66279;42.820;23.374;2023-07-20T19:22:22;24.19;58.58
77247;SHT35;66279;42.820;23.374;2023-07-20T19:24:48;23.86;60.23
77247;SHT35;66279;42.820;23.374;2023-07-20T19:27:18;23.52;61.85
77247;SHT35;66279;42.820;23.374;2023-07-20T19:29:44;23.28;62.50
77247;SHT35;66279;42.820;23.374;2023-07-20T19:32:09;22.87;63.52
77247;SHT35;66279;42.820;23.374;2023-07-20T19:34:36;22.83;63.66
77247;SHT35;66279;42.820;23.374;2023-07-20T19:37:02;22.53;65.26
77247;SHT35;66279;42.820;23.374;2023-07-20T19:39:28;22.52;65.04
77247;SHT35;66279;42.820;23.374;2023-07-20T19:41:55;22.48;64.37
77247;SHT35;66279;42.820;23.374;2023-07-20T19:44:21;22.41;65.05
77247;SHT35;66279;42.820;23.374;2023-07-20T19:46:47;22.38;63.40
77247;SHT35;66279;42.820;23.374;2023-07-20T19:49:13;22.44;65.21
77247;SHT35;66279;42.820;23.374;2023-07-20T19:51:39;22.32;63.80
77247;SHT35;66279;42.820;23.374;2023-07-20T19:54:05;22.41;64.88
77247;SHT35;66279;42.820;23.374;2023-07-20T19:56:31;22.31;65.03
77247;SHT35;66279;42.820;23.374;2023-07-20T19:58:56;22.12;66.55
77247;SHT35;66279;42.820;23.374;2023-07-20T20:01:22;21.90;67.10
77247;SHT35;66279;42.820;23.374;2023-07-20T20:03:48;21.67;67.91
77247;SHT35;66279;42.820;23.374;2023-07-20T20:06:14;21.67;67.35
77247;SHT35;66279;42.820;23.374;2023-07-20T20:08:40;21.68;67.07
77247;SHT35;66279;42.820;23.374;2023-07-20T20:11:05;21.67;67.75
77247;SHT35;66279;42.820;23.374;2023-07-20T20:13:31;21.58;67.50
77247;SHT35;66279;42.820;23.374;2023-07-20T20:15:57;21.57;67.54
77247;SHT35;66279;42.820;23.374;2023-07-20T20:18:24;21.36;68.93
77247;SHT35;66279;42.820;23.374;2023-07-20T20:20:55;21.29;69.17
77247;SHT35;66279;42.820;23.374;2023-07-20T20:23:23;21.19;68.92
77247;SHT35;66279;42.820;23.374;2023-07-20T20:25:49;21.20;69.59
77247;SHT35;66279;42.820;23.374;2023-07-20T20:28:17;21.12;69.64
77247;SHT35;66279;42.820;23.374;2023-07-20T20:30:47;21.00;70.08
77247;SHT35;66279;42.820;23.374;2023-07-20T20:33:18;20.94;70.15
77247;SHT35;66279;42.820;23.374;2023-07-20T20:35:47;20.78;70.65
77247;SHT35;66279;42.820;23.374;2023-07-20T20:38:26;20.78;70.76
77247;SHT35;66279;42.820;23.374;2023-07-20T20:40:52;20.74;70.90
77247;SHT35;66279;42.820;23.374;2023-07-20T20:43:18;20.65;70.90
77247;SHT35;66279;42.820;23.374;2023-07-20T20:45:43;20.63;70.51
77247;SHT35;66279;42.820;23.374;2023-07-20T20:48:09;20.55;70.64
77247;SHT35;66279;42.820;23.374;2023-07-20T20:50:36;20.43;72.20
77247;SHT35;66279;42.820;23.374;2023-07-20T20:53:02;20.31;72.53
77247;SHT35;66279;42.820;23.374;2023-07-20T20:55:28;20.21;72.79
77247;SHT35;66279;42.820;23.374;2023-07-20T20:57:54;20.13;72.41
